PWSweather.com
Personal Weather Stations
Station Observations
2450ARBOR
Round Rock, TX 78681

Round Rock, TX 78681

Lat: 30.535239, Lon: -97.728137

Elevation: 800

Station Type:

High Low Average
Temperature 67.6°F19.8°C 39.4°F4.1°C 58.2°F14.6°C
Dew Point 60.0°F15.6°C 37.0°F2.8°C 53.4°F11.9°C
Winds 7.0 mph 11.3 kmh Calm Calm 2.0 mph S3.2 kmh S
Wind Gusts 9.0 mph14.5 kmh -- 3.0 mph4.8 kmh
Humidity 94% 69% 84%
Pressure 30.10 in1019.3 mb 29.80 in1009.1 mb -
Precipitation 0.29 in7.4 mm - -
Hour Temp Dew Point Humidity Winds Wind Gusts Pressure Precip Precip Rate Daily Precip Total
12:01 AM 56.5°F13.6°C 52.0°F11.1°C 85% 4.0 mph NNE6.4 kmh NNE 5.0 mph8.0 kmh 29.97 in1014.9 mb 0.00 in0.0 mm 0.00 in0.0 mm 0.00 in0.0 mm
12:31 AM 56.5°F13.6°C 52.0°F11.1°C 86% 4.0 mph SE6.4 kmh SE 7.0 mph11.3 kmh 29.97 in1014.9 mb 0.00 in0.0 mm 0.00 in0.0 mm 0.00 in0.0 mm
12:50 AM 56.5°F13.6°C 52.0°F11.1°C 86% 3.0 mph SSE4.8 kmh SSE 4.0 mph6.4 kmh 29.97 in1014.9 mb 0.00 in0.0 mm 0.00 in0.0 mm 0.00 in0.0 mm
01:01 AM 56.5°F13.6°C 52.0°F11.1°C 86% 3.0 mph S4.8 kmh S 6.0 mph9.7 kmh 29.97 in1014.9 mb 0.00 in0.0 mm 0.00 in0.0 mm 0.00 in0.0 mm
01:51 AM 57.0°F13.9°C 53.0°F11.7°C 86% 1.0 mph SW1.6 kmh SW 5.0 mph8.0 kmh 29.97 in1014.9 mb 0.00 in0.0 mm 0.00 in0.0 mm 0.00 in0.0 mm
02:01 AM 57.2°F14.0°C 53.0°F11.7°C 86% 3.0 mph ESE4.8 kmh ESE 4.0 mph6.4 kmh 29.96 in1014.6 mb 0.00 in0.0 mm 0.00 in0.0 mm 0.00 in0.0 mm
02:10 AM 57.4°F14.1°C 53.0°F11.7°C 86% 2.0 mph S3.2 kmh S 4.0 mph6.4 kmh 29.96 in1014.6 mb 0.00 in0.0 mm 0.00 in0.0 mm 0.00 in0.0 mm
02:41 AM 57.4°F14.1°C 53.0°F11.7°C 86% 2.0 mph S3.2 kmh S 4.0 mph6.4 kmh 29.96 in1014.6 mb 0.00 in0.0 mm 0.00 in0.0 mm 0.00 in0.0 mm
03:10 AM 57.4°F14.1°C 53.0°F11.7°C 86% 4.0 mph W6.4 kmh W 4.0 mph6.4 kmh 29.94 in1013.9 mb 0.00 in0.0 mm 0.00 in0.0 mm 0.00 in0.0 mm
03:41 AM 57.2°F14.0°C 53.0°F11.7°C 86% 3.0 mph ESE4.8 kmh ESE 6.0 mph9.7 kmh 29.94 in1013.9 mb 0.00 in0.0 mm 0.00 in0.0 mm 0.00 in0.0 mm
04:01 AM 56.8°F13.8°C 53.0°F11.7°C 87% 4.0 mph E6.4 kmh E 4.0 mph6.4 kmh 29.91 in1012.9 mb 0.00 in0.0 mm 0.00 in0.0 mm 0.00 in0.0 mm
04:11 AM 56.8°F13.8°C 53.0°F11.7°C 87% 3.0 mph S4.8 kmh S 4.0 mph6.4 kmh 29.91 in1012.9 mb 0.00 in0.0 mm 0.00 in0.0 mm 0.00 in0.0 mm
04:31 AM 56.8°F13.8°C 53.0°F11.7°C 88% 4.0 mph SSE6.4 kmh SSE 6.0 mph9.7 kmh 29.91 in1012.9 mb 0.00 in0.0 mm 0.00 in0.0 mm 0.00 in0.0 mm
05:01 AM 56.7°F13.7°C 53.0°F11.7°C 88% 2.0 mph W3.2 kmh W 6.0 mph9.7 kmh 29.89 in1012.2 mb 0.00 in0.0 mm 0.00 in0.0 mm 0.00 in0.0 mm
05:31 AM 56.7°F13.7°C 53.0°F11.7°C 88% 4.0 mph SE6.4 kmh SE 4.0 mph6.4 kmh 29.89 in1012.2 mb 0.00 in0.0 mm 0.00 in0.0 mm 0.00 in0.0 mm
06:01 AM 56.7°F13.7°C 54.0°F12.2°C 89% 2.0 mph SSE3.2 kmh SSE 6.0 mph9.7 kmh 29.88 in1011.9 mb 0.00 in0.0 mm 0.00 in0.0 mm 0.00 in0.0 mm
06:31 AM 56.7°F13.7°C 54.0°F12.2°C 89% 2.0 mph ESE3.2 kmh ESE 4.0 mph6.4 kmh 29.88 in1011.9 mb 0.00 in0.0 mm 0.00 in0.0 mm 0.00 in0.0 mm
06:51 AM 56.7°F13.7°C 54.0°F12.2°C 89% 1.0 mph SSE1.6 kmh SSE 3.0 mph4.8 kmh 29.88 in1011.9 mb 0.00 in0.0 mm 0.00 in0.0 mm 0.00 in0.0 mm
07:21 AM 56.5°F13.6°C 53.0°F11.7°C 89% 4.0 mph S6.4 kmh S 4.0 mph6.4 kmh 29.87 in1011.5 mb 0.00 in0.0 mm 0.00 in0.0 mm 0.00 in0.0 mm
07:51 AM 56.5°F13.6°C 53.0°F11.7°C 89% 3.0 mph SE4.8 kmh SE 3.0 mph4.8 kmh 29.87 in1011.5 mb 0.00 in0.0 mm 0.00 in0.0 mm 0.00 in0.0 mm
08:21 AM 56.7°F13.7°C 54.0°F12.2°C 89% 2.0 mph S3.2 kmh S 2.0 mph3.2 kmh 29.87 in1011.5 mb 0.00 in0.0 mm 0.00 in0.0 mm 0.00 in0.0 mm
08:31 AM 56.8°F13.8°C 54.0°F12.2°C 89% 1.0 mph ESE1.6 kmh ESE 2.0 mph3.2 kmh 29.87 in1011.5 mb 0.00 in0.0 mm 0.00 in0.0 mm 0.00 in0.0 mm
08:41 AM 57.0°F13.9°C 54.0°F12.2°C 89% 3.0 mph SE4.8 kmh SE 3.0 mph4.8 kmh 29.87 in1011.5 mb 0.00 in0.0 mm 0.00 in0.0 mm 0.00 in0.0 mm
09:21 AM 57.6°F14.2°C 54.0°F12.2°C 89% 2.0 mph NE3.2 kmh NE 2.0 mph3.2 kmh 29.87 in1011.5 mb 0.00 in0.0 mm 0.00 in0.0 mm 0.00 in0.0 mm
09:31 AM 57.9°F14.4°C 55.0°F12.8°C 89% 1.0 mph SW1.6 kmh SW 2.0 mph3.2 kmh 29.87 in1011.5 mb 0.00 in0.0 mm 0.00 in0.0 mm 0.00 in0.0 mm
10:21 AM 59.2°F15.1°C 56.0°F13.3°C 88% 7.0 mph S11.3 kmh S 7.0 mph11.3 kmh 29.86 in1011.2 mb 0.00 in0.0 mm 0.00 in0.0 mm 0.00 in0.0 mm
10:31 AM 59.5°F15.3°C 56.0°F13.3°C 88% 2.0 mph SSE3.2 kmh SSE 4.0 mph6.4 kmh 29.85 in1010.8 mb 0.00 in0.0 mm 0.00 in0.0 mm 0.00 in0.0 mm
10:51 AM 59.9°F15.5°C 56.0°F13.3°C 88% 2.0 mph SSW3.2 kmh SSW 4.0 mph6.4 kmh 29.85 in1010.8 mb 0.00 in0.0 mm 0.00 in0.0 mm 0.00 in0.0 mm
11:11 AM 60.3°F15.7°C 56.0°F13.3°C 87% 2.0 mph NE3.2 kmh NE 2.0 mph3.2 kmh 29.86 in1011.2 mb 0.00 in0.0 mm 0.00 in0.0 mm 0.00 in0.0 mm
11:41 AM 60.8°F16.0°C 57.0°F13.9°C 86% 2.0 mph SSE3.2 kmh SSE 4.0 mph6.4 kmh 29.86 in1011.2 mb 0.00 in0.0 mm 0.00 in0.0 mm 0.00 in0.0 mm
12:01 PM 61.7°F16.5°C 57.0°F13.9°C 85% 4.0 mph S6.4 kmh S 4.0 mph6.4 kmh 29.83 in1010.2 mb 0.00 in0.0 mm 0.00 in0.0 mm 0.00 in0.0 mm
12:11 PM 62.1°F16.7°C 58.0°F14.4°C 85% 3.0 mph SSE4.8 kmh SSE 3.0 mph4.8 kmh 29.83 in1010.2 mb 0.00 in0.0 mm 0.00 in0.0 mm 0.00 in0.0 mm
12:31 PM 62.8°F17.1°C 58.0°F14.4°C 84% 4.0 mph S6.4 kmh S 4.0 mph6.4 kmh 29.84 in1010.5 mb 0.00 in0.0 mm 0.00 in0.0 mm 0.00 in0.0 mm
12:59 PM 64.8°F18.2°C 59.0°F15.0°C 81% 1.0 mph SE1.6 kmh SE 4.0 mph6.4 kmh 29.82 in1009.8 mb 0.00 in0.0 mm 0.00 in0.0 mm 0.00 in0.0 mm
01:20 PM 64.8°F18.2°C 59.0°F15.0°C 81% 3.0 mph S4.8 kmh S 5.0 mph8.0 kmh 29.82 in1009.8 mb 0.00 in0.0 mm 0.00 in0.0 mm 0.00 in0.0 mm
01:51 PM 67.1°F19.5°C 60.0°F15.6°C 78% 2.0 mph E3.2 kmh E 2.0 mph3.2 kmh 29.82 in1009.8 mb 0.00 in0.0 mm 0.00 in0.0 mm 0.00 in0.0 mm
02:01 PM 67.1°F19.5°C 60.0°F15.6°C 78% 2.0 mph SE3.2 kmh SE 2.0 mph3.2 kmh 29.81 in1009.5 mb 0.00 in0.0 mm 0.00 in0.0 mm 0.00 in0.0 mm
02:10 PM 67.1°F19.5°C 60.0°F15.6°C 77% 1.0 mph S1.6 kmh S 3.0 mph4.8 kmh 29.81 in1009.5 mb 0.00 in0.0 mm 0.00 in0.0 mm 0.00 in0.0 mm
02:51 PM 67.1°F19.5°C 60.0°F15.6°C 77% Calm Calm -- 29.81 in1009.5 mb 0.00 in0.0 mm 0.00 in0.0 mm 0.00 in0.0 mm
03:01 PM 67.1°F19.5°C 60.0°F15.6°C 77% 4.0 mph SE6.4 kmh SE 5.0 mph8.0 kmh 29.80 in1009.1 mb 0.00 in0.0 mm 0.00 in0.0 mm 0.00 in0.0 mm
03:31 PM 67.6°F19.8°C 60.0°F15.6°C 76% Calm Calm 2.0 mph3.2 kmh 29.80 in1009.1 mb 0.00 in0.0 mm 0.00 in0.0 mm 0.00 in0.0 mm
03:51 PM 67.5°F19.7°C 60.0°F15.6°C 76% 2.0 mph SSE3.2 kmh SSE 2.0 mph3.2 kmh 29.80 in1009.1 mb 0.00 in0.0 mm 0.00 in0.0 mm 0.00 in0.0 mm
04:31 PM 66.9°F19.4°C 60.0°F15.6°C 78% Calm Calm -- 29.81 in1009.5 mb 0.00 in0.0 mm 0.00 in0.0 mm 0.00 in0.0 mm
04:40 PM 66.7°F19.3°C 60.0°F15.6°C 79% Calm Calm -- 29.81 in1009.5 mb 0.00 in0.0 mm 0.00 in0.0 mm 0.00 in0.0 mm
05:01 PM 66.6°F19.2°C 60.0°F15.6°C 80% Calm Calm -- 29.81 in1009.5 mb 0.00 in0.0 mm 0.00 in0.0 mm 0.00 in0.0 mm
05:31 PM 65.8°F18.8°C 60.0°F15.6°C 80% Calm Calm 1.0 mph1.6 kmh 29.81 in1009.5 mb 0.00 in0.0 mm 0.00 in0.0 mm 0.00 in0.0 mm
05:51 PM 65.1°F18.4°C 59.0°F15.0°C 80% 1.0 mph S1.6 kmh S 1.0 mph1.6 kmh 29.81 in1009.5 mb 0.00 in0.0 mm 0.00 in0.0 mm 0.00 in0.0 mm
06:01 PM 64.9°F18.3°C 59.0°F15.0°C 80% 1.0 mph SSE1.6 kmh SSE 1.0 mph1.6 kmh 29.83 in1010.2 mb 0.00 in0.0 mm 0.00 in0.0 mm 0.00 in0.0 mm
06:51 PM 63.3°F17.4°C 58.0°F14.4°C 82% Calm Calm -- 29.83 in1010.2 mb 0.00 in0.0 mm 0.00 in0.0 mm 0.00 in0.0 mm
07:11 PM 62.8°F17.1°C 58.0°F14.4°C 83% Calm Calm -- 29.86 in1011.2 mb 0.00 in0.0 mm 0.00 in0.0 mm 0.00 in0.0 mm
07:21 PM 62.6°F17.0°C 57.0°F13.9°C 83% Calm Calm -- 29.86 in1011.2 mb 0.00 in0.0 mm 0.00 in0.0 mm 0.00 in0.0 mm
07:40 PM 62.1°F16.7°C 57.0°F13.9°C 83% Calm Calm -- 29.86 in1011.2 mb 0.00 in0.0 mm 0.00 in0.0 mm 0.00 in0.0 mm
08:01 PM 62.1°F16.7°C 57.0°F13.9°C 84% Calm Calm -- 29.86 in1011.2 mb 0.00 in0.0 mm 0.00 in0.0 mm 0.00 in0.0 mm
08:31 PM 61.0°F16.1°C 57.0°F13.9°C 88% Calm Calm 1.0 mph1.6 kmh 29.86 in1011.2 mb 0.00 in0.0 mm 0.00 in0.0 mm 0.00 in0.0 mm
09:01 PM 59.7°F15.4°C 57.0°F13.9°C 91% 2.0 mph NNE3.2 kmh NNE 2.0 mph3.2 kmh 29.93 in1013.5 mb 0.03 in0.8 mm 0.06 in1.5 mm 0.03 in0.8 mm
09:31 PM 52.9°F11.6°C 48.0°F8.9°C 85% 3.0 mph WNW4.8 kmh WNW 5.0 mph8.0 kmh 29.93 in1013.5 mb 0.02 in0.5 mm 0.00 in0.0 mm 0.03 in0.8 mm
09:51 PM 50.5°F10.3°C 45.0°F7.2°C 82% 2.0 mph NW3.2 kmh NW 6.0 mph9.7 kmh 29.93 in1013.5 mb 0.01 in0.3 mm 0.00 in0.0 mm 0.04 in1.0 mm
10:21 PM 48.2°F9.0°C 40.0°F4.4°C 73% 4.0 mph W6.4 kmh W 9.0 mph14.5 kmh 30.00 in1015.9 mb 0.01 in0.3 mm 0.00 in0.0 mm 0.04 in1.0 mm
10:31 PM 47.7°F8.7°C 38.0°F3.3°C 70% 4.0 mph W6.4 kmh W 8.0 mph12.9 kmh 30.00 in1015.9 mb 0.00 in0.0 mm 0.00 in0.0 mm 0.04 in1.0 mm
10:41 PM 47.5°F8.6°C 38.0°F3.3°C 69% 2.0 mph 3.2 kmh 5.0 mph8.0 kmh 30.00 in1015.9 mb 0.00 in0.0 mm 0.00 in0.0 mm 0.04 in1.0 mm
11:11 PM 44.2°F6.8°C 40.0°F4.4°C 85% 2.0 mph WNW3.2 kmh WNW 3.0 mph4.8 kmh 30.07 in1018.3 mb 0.02 in0.5 mm 0.04 in1.0 mm 0.06 in1.5 mm
11:31 PM 42.4°F5.8°C 39.0°F3.9°C 87% 3.0 mph SSE4.8 kmh SSE 5.0 mph8.0 kmh 30.07 in1018.3 mb 0.05 in1.3 mm 0.09 in2.3 mm 0.09 in2.3 mm
11:41 PM 41.5°F5.3°C 39.0°F3.9°C 90% 1.0 mph W1.6 kmh W 3.0 mph4.8 kmh 30.07 in1018.3 mb 0.09 in2.3 mm 0.24 in6.1 mm 0.13 in3.3 mm